sensor_id;sensor_type;location;lat;lon;timestamp;temperature;humidity
15690;DHT22;7945;48.816;11.506;2023-06-04T00:00:03;17.00;59.30
15690;DHT22;7945;48.816;11.506;2023-06-04T00:02:30;17.00;59.30
15690;DHT22;7945;48.816;11.506;2023-06-04T00:04:57;17.00;59.30
15690;DHT22;7945;48.816;11.506;2023-06-04T00:07:25;17.00;59.50
15690;DHT22;7945;48.816;11.506;2023-06-04T00:09:52;17.00;59.50
15690;DHT22;7945;48.816;11.506;2023-06-04T00:12:19;16.90;59.50
15690;DHT22;7945;48.816;11.506;2023-06-04T00:14:46;16.90;59.70
15690;DHT22;7945;48.816;11.506;2023-06-04T00:17:13;16.90;59.70
15690;DHT22;7945;48.816;11.506;2023-06-04T00:19:40;17.00;59.80
15690;DHT22;7945;48.816;11.506;2023-06-04T00:22:07;17.00;59.80
15690;DHT22;7945;48.816;11.506;2023-06-04T00:24:37;16.90;59.80
15690;DHT22;7945;48.816;11.506;2023-06-04T00:27:05;16.90;60.00
15690;DHT22;7945;48.816;11.506;2023-06-04T00:29:31;16.90;60.10
15690;DHT22;7945;48.816;11.506;2023-06-04T00:31:58;16.90;60.10
15690;DHT22;7945;48.816;11.506;2023-06-04T00:34:25;16.90;60.10
15690;DHT22;7945;48.816;11.506;2023-06-04T00:36:52;17.00;60.00
15690;DHT22;7945;48.816;11.506;2023-06-04T00:39:19;16.90;60.00
15690;DHT22;7945;48.816;11.506;2023-06-04T00:41:47;16.90;60.10
15690;DHT22;7945;48.816;11.506;2023-06-04T00:44:13;16.80;60.20
15690;DHT22;7945;48.816;11.506;2023-06-04T00:46:40;16.90;60.20
15690;DHT22;7945;48.816;11.506;2023-06-04T00:49:11;16.90;60.10
15690;DHT22;7945;48.816;11.506;2023-06-04T00:51:38;16.90;60.20
15690;DHT22;7945;48.816;11.506;2023-06-04T00:54:06;16.90;60.20
15690;DHT22;7945;48.816;11.506;2023-06-04T00:56:34;16.90;60.30
15690;DHT22;7945;48.816;11.506;2023-06-04T00:59:04;16.90;60.40
15690;DHT22;7945;48.816;11.506;2023-06-04T01:01:44;16.80;60.30
15690;DHT22;7945;48.816;11.506;2023-06-04T01:04:20;16.90;60.40
15690;DHT22;7945;48.816;11.506;2023-06-04T01:06:50;16.80;60.30
15690;DHT22;7945;48.816;11.506;2023-06-04T01:09:18;16.90;60.50
15690;DHT22;7945;48.816;11.506;2023-06-04T01:11:45;16.90;60.50
15690;DHT22;7945;48.816;11.506;2023-06-04T01:14:13;16.90;60.70
15690;DHT22;7945;48.816;11.506;2023-06-04T01:16:46;16.90;60.80
15690;DHT22;7945;48.816;11.506;2023-06-04T01:19:32;16.90;60.80
15690;DHT22;7945;48.816;11.506;2023-06-04T01:22:10;16.90;60.80
15690;DHT22;7945;48.816;11.506;2023-06-04T01:24:45;16.90;60.80
15690;DHT22;7945;48.816;11.506;2023-06-04T01:27:17;17.00;61.00
15690;DHT22;7945;48.816;11.506;2023-06-04T01:29:46;16.90;61.00
15690;DHT22;7945;48.816;11.506;2023-06-04T01:32:14;16.90;61.10
15690;DHT22;7945;48.816;11.506;2023-06-04T01:34:45;16.90;61.10
15690;DHT22;7945;48.816;11.506;2023-06-04T01:37:12;16.90;61.10
15690;DHT22;7945;48.816;11.506;2023-06-04T01:39:39;16.80;61.10
15690;DHT22;7945;48.816;11.506;2023-06-04T01:42:06;16.80;61.30
15690;DHT22;7945;48.816;11.506;2023-06-04T01:44:33;16.80;61.30
15690;DHT22;7945;48.816;11.506;2023-06-04T01:47:02;16.80;61.40
15690;DHT22;7945;48.816;11.506;2023-06-04T01:49:29;16.80;61.40
15690;DHT22;7945;48.816;11.506;2023-06-04T01:51:56;16.70;61.40
15690;DHT22;7945;48.816;11.506;2023-06-04T01:54:23;16.70;61.30
15690;DHT22;7945;48.816;11.506;2023-06-04T01:56:50;16.60;61.30
15690;DHT22;7945;48.816;11.506;2023-06-04T01:59:17;16.60;61.50
15690;DHT22;7945;48.816;11.506;2023-06-04T02:01:44;16.60;61.50
15690;DHT22;7945;48.816;11.506;2023-06-04T02:04:12;16.60;61.60
15690;DHT22;7945;48.816;11.506;2023-06-04T02:06:38;16.50;61.60
15690;DHT22;7945;48.816;11.506;2023-06-04T02:09:05;16.50;61.60
15690;DHT22;7945;48.816;11.506;2023-06-04T02:11:32;16.40;61.70
15690;DHT22;7945;48.816;11.506;2023-06-04T02:13:59;16.40;61.80
15690;DHT22;7945;48.816;11.506;2023-06-04T02:16:25;16.30;61.80
15690;DHT22;7945;48.816;11.506;2023-06-04T02:18:52;16.30;61.90
15690;DHT22;7945;48.816;11.506;2023-06-04T02:21:20;16.30;62.30
15690;DHT22;7945;48.816;11.506;2023-06-04T02:23:47;16.30;62.50
15690;DHT22;7945;48.816;11.506;2023-06-04T02:26:14;16.30;62.60
15690;DHT22;7945;48.816;11.506;2023-06-04T02:28:40;16.20;62.60
15690;DHT22;7945;48.816;11.506;2023-06-04T02:31:07;16.10;62.50
15690;DHT22;7945;48.816;11.506;2023-06-04T02:33:34;16.10;63.10
15690;DHT22;7945;48.816;11.506;2023-06-04T02:36:00;16.00;62.40
15690;DHT22;7945;48.816;11.506;2023-06-04T02:38:28;16.00;62.40
15690;DHT22;7945;48.816;11.506;2023-06-04T02:40:55;16.00;62.50
15690;DHT22;7945;48.816;11.506;2023-06-04T02:43:22;16.00;62.50
15690;DHT22;7945;48.816;11.506;2023-06-04T02:45:49;16.00;62.50
15690;DHT22;7945;48.816;11.506;2023-06-04T02:48:15;16.00;62.70
15690;DHT22;7945;48.816;11.506;2023-06-04T02:50:42;16.00;63.00
15690;DHT22;7945;48.816;11.506;2023-06-04T02:53:09;16.00;63.00
15690;DHT22;7945;48.816;11.506;2023-06-04T02:55:37;16.00;63.10
15690;DHT22;7945;48.816;11.506;2023-06-04T02:58:03;16.00;63.00
15690;DHT22;7945;48.816;11.506;2023-06-04T03:00:30;16.00;63.10
15690;DHT22;7945;48.816;11.506;2023-06-04T03:02:58;15.90;63.20
15690;DHT22;7945;48.816;11.506;2023-06-04T03:05:27;15.90;63.30
15690;DHT22;7945;48.816;11.506;2023-06-04T03:07:56;15.90;63.30
15690;DHT22;7945;48.816;11.506;2023-06-04T03:10:24;15.80;63.30
15690;DHT22;7945;48.816;11.506;2023-06-04T03:12:52;15.80;63.30
15690;DHT22;7945;48.816;11.506;2023-06-04T03:15:19;15.80;63.40
15690;DHT22;7945;48.816;11.506;2023-06-04T03:17:45;15.80;63.50
15690;DHT22;7945;48.816;11.506;2023-06-04T03:20:12;15.80;63.80
15690;DHT22;7945;48.816;11.506;2023-06-04T03:22:39;15.80;63.90
15690;DHT22;7945;48.816;11.506;2023-06-04T03:25:06;15.70;64.10
15690;DHT22;7945;48.816;11.506;2023-06-04T03:27:33;15.70;64.40
15690;DHT22;7945;48.816;11.506;2023-06-04T03:30:01;15.60;64.40
15690;DHT22;7945;48.816;11.506;2023-06-04T03:32:28;15.60;64.60
15690;DHT22;7945;48.816;11.506;2023-06-04T03:34:55;15.50;64.70
15690;DHT22;7945;48.816;11.506;2023-06-04T03:37:22;15.50;64.70
15690;DHT22;7945;48.816;11.506;2023-06-04T03:39:48;15.50;64.90
15690;DHT22;7945;48.816;11.506;2023-06-04T03:42:15;15.40;65.00
15690;DHT22;7945;48.816;11.506;2023-06-04T03:44:42;15.40;65.10
15690;DHT22;7945;48.816;11.506;2023-06-04T03:47:10;15.40;65.10
15690;DHT22;7945;48.816;11.506;2023-06-04T03:49:37;15.40;65.10
15690;DHT22;7945;48.816;11.506;2023-06-04T03:52:04;15.40;65.10
15690;DHT22;7945;48.816;11.506;2023-06-04T03:54:30;15.40;65.00
15690;DHT22;7945;48.816;11.506;2023-06-04T03:56:57;15.40;65.00
15690;DHT22;7945;48.816;11.506;2023-06-04T03:59:24;15.40;65.00
15690;DHT22;7945;48.816;11.506;2023-06-04T04:01:51;15.40;64.80
15690;DHT22;7945;48.816;11.506;2023-06-04T04:04:19;15.40;64.80
15690;DHT22;7945;48.816;11.506;2023-06-04T04:06:45;15.40;64.90
15690;DHT22;7945;48.816;11.506;2023-06-04T04:09:12;15.40;65.00
15690;DHT22;7945;48.816;11.506;2023-06-04T04:11:39;15.40;65.10
15690;DHT22;7945;48.816;11.506;2023-06-04T04:14:05;15.40;65.20
15690;DHT22;7945;48.816;11.506;2023-06-04T04:16:32;15.40;65.20
15690;DHT22;7945;48.816;11.506;2023-06-04T04:18:59;15.60;65.10
15690;DHT22;7945;48.816;11.506;2023-06-04T04:21:27;15.90;64.50
15690;DHT22;7945;48.816;11.506;2023-06-04T04:23:53;16.70;63.40
15690;DHT22;7945;48.816;11.506;2023-06-04T04:26:20;17.70;61.40
15690;DHT22;7945;48.816;11.506;2023-06-04T04:28:47;18.60;59.50
15690;DHT22;7945;48.816;11.506;2023-06-04T04:31:15;19.40;58.10
15690;DHT22;7945;48.816;11.506;2023-06-04T04:33:42;20.00;57.10
15690;DHT22;7945;48.816;11.506;2023-06-04T04:36:10;20.10;56.60
15690;DHT22;7945;48.816;11.506;2023-06-04T04:38:39;20.30;56.50
15690;DHT22;7945;48.816;11.506;2023-06-04T04:41:07;20.90;55.70
15690;DHT22;7945;48.816;11.506;2023-06-04T04:43:34;21.30;55.00
15690;DHT22;7945;48.816;11.506;2023-06-04T04:46:01;21.70;55.00
15690;DHT22;7945;48.816;11.506;2023-06-04T04:48:28;22.20;53.90
15690;DHT22;7945;48.816;11.506;2023-06-04T04:50:55;22.70;53.20
15690;DHT22;7945;48.816;11.506;2023-06-04T04:53:22;23.30;52.50
15690;DHT22;7945;48.816;11.506;2023-06-04T04:55:50;23.90;51.80
15690;DHT22;7945;48.816;11.506;2023-06-04T04:58:17;24.40;51.20
15690;DHT22;7945;48.816;11.506;2023-06-04T05:00:44;24.90;51.30
15690;DHT22;7945;48.816;11.506;2023-06-04T05:03:11;25.30;50.30
15690;DHT22;7945;48.816;11.506;2023-06-04T05:05:37;25.70;49.70
15690;DHT22;7945;48.816;11.506;2023-06-04T05:08:04;26.00;49.30
15690;DHT22;7945;48.816;11.506;2023-06-04T05:10:31;26.30;48.90
15690;DHT22;7945;48.816;11.506;2023-06-04T05:12:59;26.50;48.50
15690;DHT22;7945;48.816;11.506;2023-06-04T05:15:27;26.70;48.30
15690;DHT22;7945;48.816;11.506;2023-06-04T05:17:55;26.90;48.00
15690;DHT22;7945;48.816;11.506;2023-06-04T05:20:22;27.10;47.80
15690;DHT22;7945;48.816;11.506;2023-06-04T05:22:49;27.30;47.70
15690;DHT22;7945;48.816;11.506;2023-06-04T05:25:16;27.40;47.30
15690;DHT22;7945;48.816;11.506;2023-06-04T05:27:43;27.50;47.10
15690;DHT22;7945;48.816;11.506;2023-06-04T05:30:12;27.50;46.90
15690;DHT22;7945;48.816;11.506;2023-06-04T05:32:39;27.60;46.80
15690;DHT22;7945;48.816;11.506;2023-06-04T05:35:08;27.60;46.70
15690;DHT22;7945;48.816;11.506;2023-06-04T05:37:35;27.50;46.30
15690;DHT22;7945;48.816;11.506;2023-06-04T05:40:04;27.40;46.40
15690;DHT22;7945;48.816;11.506;2023-06-04T05:42:32;27.30;46.30
15690;DHT22;7945;48.816;11.506;2023-06-04T05:44:59;27.40;46.40
15690;DHT22;7945;48.816;11.506;2023-06-04T05:47:28;27.30;46.20
15690;DHT22;7945;48.816;11.506;2023-06-04T05:49:55;27.30;46.10
15690;DHT22;7945;48.816;11.506;2023-06-04T05:52:22;27.20;45.90
15690;DHT22;7945;48.816;11.506;2023-06-04T05:54:49;27.00;45.90
15690;DHT22;7945;48.816;11.506;2023-06-04T05:57:15;26.90;46.70
15690;DHT22;7945;48.816;11.506;2023-06-04T05:59:42;27.00;46.40
15690;DHT22;7945;48.816;11.506;2023-06-04T06:02:09;26.90;46.40
15690;DHT22;7945;48.816;11.506;2023-06-04T06:04:37;27.00;46.60
15690;DHT22;7945;48.816;11.506;2023-06-04T06:07:04;26.80;46.60
15690;DHT22;7945;48.816;11.506;2023-06-04T06:09:30;26.50;47.00
15690;DHT22;7945;48.816;11.506;2023-06-04T06:15:24;25.20;48.00
15690;DHT22;7945;48.816;11.506;2023-06-04T06:17:50;24.60;48.80
15690;DHT22;7945;48.816;11.506;2023-06-04T06:20:18;24.00;49.60
15690;DHT22;7945;48.816;11.506;2023-06-04T06:22:44;23.40;50.60
15690;DHT22;7945;48.816;11.506;2023-06-04T06:25:11;23.10;51.40
15690;DHT22;7945;48.816;11.506;2023-06-04T06:27:39;22.80;51.90
15690;DHT22;7945;48.816;11.506;2023-06-04T06:30:07;22.50;52.00
15690;DHT22;7945;48.816;11.506;2023-06-04T06:32:35;22.10;52.70
15690;DHT22;7945;48.816;11.506;2023-06-04T06:35:02;22.00;53.50
15690;DHT22;7945;48.816;11.506;2023-06-04T06:37:29;22.00;53.90
15690;DHT22;7945;48.816;11.506;2023-06-04T06:39:55;21.90;54.00
15690;DHT22;7945;48.816;11.506;2023-06-04T06:42:22;21.70;54.50
15690;DHT22;7945;48.816;11.506;2023-06-04T06:44:49;21.70;54.90
15690;DHT22;7945;48.816;11.506;2023-06-04T06:47:16;21.70;55.10
15690;DHT22;7945;48.816;11.506;2023-06-04T06:49:44;21.70;55.20
15690;DHT22;7945;48.816;11.506;2023-06-04T06:52:10;21.70;55.80
15690;DHT22;7945;48.816;11.506;2023-06-04T06:54:37;21.70;55.80
15690;DHT22;7945;48.816;11.506;2023-06-04T06:57:04;21.70;55.30
15690;DHT22;7945;48.816;11.506;2023-06-04T06:59:34;21.70;55.00
15690;DHT22;7945;48.816;11.506;2023-06-04T07:02:01;21.50;55.50
15690;DHT22;7945;48.816;11.506;2023-06-04T07:04:27;21.40;55.10
15690;DHT22;7945;48.816;11.506;2023-06-04T07:06:55;21.20;55.60
15690;DHT22;7945;48.816;11.506;2023-06-04T07:09:22;21.00;56.10
15690;DHT22;7945;48.816;11.506;2023-06-04T07:11:49;21.00;56.30
15690;DHT22;7945;48.816;11.506;2023-06-04T07:14:15;21.00;56.40
15690;DHT22;7945;48.816;11.506;2023-06-04T07:16:42;20.80;56.50
15690;DHT22;7945;48.816;11.506;2023-06-04T07:19:09;20.80;56.60
15690;DHT22;7945;48.816;11.506;2023-06-04T07:21:36;20.80;56.90
15690;DHT22;7945;48.816;11.506;2023-06-04T07:24:04;20.70;57.10
15690;DHT22;7945;48.816;11.506;2023-06-04T07:26:32;20.70;57.20
15690;DHT22;7945;48.816;11.506;2023-06-04T07:28:58;20.60;57.30
15690;DHT22;7945;48.816;11.506;2023-06-04T07:31:25;20.60;57.70
15690;DHT22;7945;48.816;11.506;2023-06-04T07:33:52;20.50;57.30
15690;DHT22;7945;48.816;11.506;2023-06-04T07:36:19;20.50;56.80
15690;DHT22;7945;48.816;11.506;2023-06-04T07:38:46;20.60;57.10
15690;DHT22;7945;48.816;11.506;2023-06-04T07:41:14;20.60;57.00
15690;DHT22;7945;48.816;11.506;2023-06-04T07:43:42;20.70;57.40
15690;DHT22;7945;48.816;11.506;2023-06-04T07:46:09;20.70;57.50
15690;DHT22;7945;48.816;11.506;2023-06-04T07:48:36;20.70;58.00
15690;DHT22;7945;48.816;11.506;2023-06-04T07:51:03;20.70;57.40
15690;DHT22;7945;48.816;11.506;2023-06-04T07:53:30;20.70;57.70
15690;DHT22;7945;48.816;11.506;2023-06-04T07:55:57;20.60;57.40
15690;DHT22;7945;48.816;11.506;2023-06-04T07:58:25;20.60;57.40
15690;DHT22;7945;48.816;11.506;2023-06-04T08:00:52;20.60;57.60
15690;DHT22;7945;48.816;11.506;2023-06-04T08:03:19;20.60;57.80
15690;DHT22;7945;48.816;11.506;2023-06-04T08:05:46;20.80;57.70
15690;DHT22;7945;48.816;11.506;2023-06-04T08:08:13;20.80;57.90
15690;DHT22;7945;48.816;11.506;2023-06-04T08:10:40;20.80;57.40
15690;DHT22;7945;48.816;11.506;2023-06-04T08:13:06;20.80;58.20
15690;DHT22;7945;48.816;11.506;2023-06-04T08:15:35;20.70;57.40
15690;DHT22;7945;48.816;11.506;2023-06-04T08:18:02;20.70;57.40
15690;DHT22;7945;48.816;11.506;2023-06-04T08:20:29;20.60;57.80
15690;DHT22;7945;48.816;11.506;2023-06-04T08:22:55;20.60;58.00
15690;DHT22;7945;48.816;11.506;2023-06-04T08:25:22;20.70;57.90
15690;DHT22;7945;48.816;11.506;2023-06-04T08:27:49;20.70;58.00
15690;DHT22;7945;48.816;11.506;2023-06-04T08:30:15;20.60;57.50
15690;DHT22;7945;48.816;11.506;2023-06-04T08:32:44;20.70;57.80
15690;DHT22;7945;48.816;11.506;2023-06-04T08:35:11;20.70;57.90
15690;DHT22;7945;48.816;11.506;2023-06-04T08:37:37;20.70;57.80
15690;DHT22;7945;48.816;11.506;2023-06-04T08:40:05;20.80;58.30
15690;DHT22;7945;48.816;11.506;2023-06-04T08:42:38;21.00;58.30
15690;DHT22;7945;48.816;11.506;2023-06-04T08:45:06;21.00;58.30
15690;DHT22;7945;48.816;11.506;2023-06-04T08:47:35;21.10;58.60
15690;DHT22;7945;48.816;11.506;2023-06-04T08:50:07;21.20;59.00
15690;DHT22;7945;48.816;11.506;2023-06-04T08:52:37;21.30;58.40
15690;DHT22;7945;48.816;11.506;2023-06-04T08:55:04;21.30;58.60
15690;DHT22;7945;48.816;11.506;2023-06-04T08:57:31;21.40;58.70
15690;DHT22;7945;48.816;11.506;2023-06-04T08:59:58;21.40;58.60
15690;DHT22;7945;48.816;11.506;2023-06-04T09:02:27;21.40;58.60
15690;DHT22;7945;48.816;11.506;2023-06-04T09:04:54;21.40;58.50
15690;DHT22;7945;48.816;11.506;2023-06-04T09:07:22;21.40;58.60
15690;DHT22;7945;48.816;11.506;2023-06-04T09:09:50;21.40;58.70
15690;DHT22;7945;48.816;11.506;2023-06-04T09:12:21;21.50;59.10
15690;DHT22;7945;48.816;11.506;2023-06-04T09:14:49;21.40;58.60
15690;DHT22;7945;48.816;11.506;2023-06-04T09:17:21;21.50;59.00
15690;DHT22;7945;48.816;11.506;2023-06-04T09:19:48;21.60;59.00
15690;DHT22;7945;48.816;11.506;2023-06-04T09:22:15;21.60;58.40
15690;DHT22;7945;48.816;11.506;2023-06-04T09:24:46;21.80;58.40
15690;DHT22;7945;48.816;11.506;2023-06-04T09:27:16;21.90;57.30
15690;DHT22;7945;48.816;11.506;2023-06-04T09:29:49;22.00;57.40
15690;DHT22;7945;48.816;11.506;2023-06-04T09:32:21;22.00;57.50
15690;DHT22;7945;48.816;11.506;2023-06-04T09:34:47;22.10;57.20
15690;DHT22;7945;48.816;11.506;2023-06-04T09:37:14;22.10;57.00
15690;DHT22;7945;48.816;11.506;2023-06-04T09:39:52;22.10;55.80
15690;DHT22;7945;48.816;11.506;2023-06-04T09:42:19;22.20;56.00
15690;DHT22;7945;48.816;11.506;2023-06-04T09:44:45;22.30;55.80
15690;DHT22;7945;48.816;11.506;2023-06-04T09:47:12;22.30;55.10
15690;DHT22;7945;48.816;11.506;2023-06-04T09:49:42;22.40;55.70
15690;DHT22;7945;48.816;11.506;2023-06-04T09:52:09;22.30;55.00
15690;DHT22;7945;48.816;11.506;2023-06-04T09:54:37;22.50;54.60
15690;DHT22;7945;48.816;11.506;2023-06-04T09:57:13;22.80;55.20
15690;DHT22;7945;48.816;11.506;2023-06-04T09:59:43;22.80;54.70
15690;DHT22;7945;48.816;11.506;2023-06-04T10:02:11;22.80;54.90
15690;DHT22;7945;48.816;11.506;2023-06-04T10:04:41;22.80;55.50
15690;DHT22;7945;48.816;11.506;2023-06-04T10:07:09;22.80;55.10
15690;DHT22;7945;48.816;11.506;2023-06-04T10:09:38;22.80;55.40
15690;DHT22;7945;48.816;11.506;2023-06-04T10:12:13;22.80;55.30
15690;DHT22;7945;48.816;11.506;2023-06-04T10:14:45;23.00;55.10
15690;DHT22;7945;48.816;11.506;2023-06-04T10:17:15;23.20;54.60
15690;DHT22;7945;48.816;11.506;2023-06-04T10:19:44;23.30;55.00
15690;DHT22;7945;48.816;11.506;2023-06-04T10:22:11;23.40;55.10
15690;DHT22;7945;48.816;11.506;2023-06-04T10:24:38;23.50;55.00
15690;DHT22;7945;48.816;11.506;2023-06-04T10:27:06;23.70;54.30
15690;DHT22;7945;48.816;11.506;2023-06-04T10:29:37;23.80;53.80
15690;DHT22;7945;48.816;11.506;2023-06-04T10:32:04;23.80;53.50
15690;DHT22;7945;48.816;11.506;2023-06-04T10:34:31;23.90;53.20
15690;DHT22;7945;48.816;11.506;2023-06-04T10:36:58;24.00;52.90
15690;DHT22;7945;48.816;11.506;2023-06-04T10:39:26;24.00;52.90
15690;DHT22;7945;48.816;11.506;2023-06-04T10:42:00;24.10;52.80
15690;DHT22;7945;48.816;11.506;2023-06-04T10:44:27;24.10;52.50
15690;DHT22;7945;48.816;11.506;2023-06-04T10:46:56;24.00;53.20
15690;DHT22;7945;48.816;11.506;2023-06-04T10:49:27;24.20;52.70
15690;DHT22;7945;48.816;11.506;2023-06-04T10:51:54;24.30;52.80
15690;DHT22;7945;48.816;11.506;2023-06-04T10:54:23;24.40;52.50
15690;DHT22;7945;48.816;11.506;2023-06-04T10:56:51;24.40;52.40
15690;DHT22;7945;48.816;11.506;2023-06-04T10:59:18;24.40;52.50
15690;DHT22;7945;48.816;11.506;2023-06-04T11:01:45;24.50;52.30
15690;DHT22;7945;48.816;11.506;2023-06-04T11:04:21;24.60;52.30
15690;DHT22;7945;48.816;11.506;2023-06-04T11:06:48;24.70;52.10
15690;DHT22;7945;48.816;11.506;2023-06-04T11:09:16;24.70;52.40
15690;DHT22;7945;48.816;11.506;2023-06-04T11:11:44;24.60;52.10
15690;DHT22;7945;48.816;11.506;2023-06-04T11:14:11;24.70;52.10
15690;DHT22;7945;48.816;11.506;2023-06-04T11:16:38;24.90;51.80
15690;DHT22;7945;48.816;11.506;2023-06-04T11:19:05;25.10;51.40
15690;DHT22;7945;48.816;11.506;2023-06-04T11:21:35;25.20;51.40
15690;DHT22;7945;48.816;11.506;2023-06-04T11:24:04;25.20;51.10
15690;DHT22;7945;48.816;11.506;2023-06-04T11:26:31;25.20;51.30
15690;DHT22;7945;48.816;11.506;2023-06-04T11:28:59;25.30;51.00
15690;DHT22;7945;48.816;11.506;2023-06-04T11:31:26;25.30;51.50
15690;DHT22;7945;48.816;11.506;2023-06-04T11:33:53;25.30;51.60
15690;DHT22;7945;48.816;11.506;2023-06-04T11:36:23;25.30;51.60
15690;DHT22;7945;48.816;11.506;2023-06-04T11:38:56;25.50;51.10
15690;DHT22;7945;48.816;11.506;2023-06-04T11:41:23;25.60;51.20
15690;DHT22;7945;48.816;11.506;2023-06-04T11:43:50;25.50;51.60
15690;DHT22;7945;48.816;11.506;2023-06-04T11:46:17;25.50;50.90
15690;DHT22;7945;48.816;11.506;2023-06-04T11:48:44;25.60;50.80
15690;DHT22;7945;48.816;11.506;2023-06-04T11:51:11;25.60;50.70
15690;DHT22;7945;48.816;11.506;2023-06-04T11:53:38;25.50;50.40
15690;DHT22;7945;48.816;11.506;2023-06-04T11:56:07;25.50;50.20
15690;DHT22;7945;48.816;11.506;2023-06-04T11:58:34;25.50;49.80
15690;DHT22;7945;48.816;11.506;2023-06-04T12:01:01;25.50;49.90
15690;DHT22;7945;48.816;11.506;2023-06-04T12:03:35;25.50;50.20
15690;DHT22;7945;48.816;11.506;2023-06-04T12:06:11;25.60;50.10
15690;DHT22;7945;48.816;11.506;2023-06-04T12:08:45;25.80;49.70
15690;DHT22;7945;48.816;11.506;2023-06-04T12:11:24;25.80;49.80
15690;DHT22;7945;48.816;11.506;2023-06-04T12:13:52;25.60;49.80
15690;DHT22;7945;48.816;11.506;2023-06-04T12:16:19;25.40;50.20
15690;DHT22;7945;48.816;11.506;2023-06-04T12:18:45;25.40;50.30
15690;DHT22;7945;48.816;11.506;2023-06-04T12:21:17;25.30;49.90
15690;DHT22;7945;48.816;11.506;2023-06-04T12:23:45;25.40;50.50
15690;DHT22;7945;48.816;11.506;2023-06-04T12:26:22;25.10;50.60
15690;DHT22;7945;48.816;11.506;2023-06-04T12:29:00;25.20;51.30
15690;DHT22;7945;48.816;11.506;2023-06-04T12:31:27;25.20;50.70
15690;DHT22;7945;48.816;11.506;2023-06-04T12:33:58;25.20;50.30
15690;DHT22;7945;48.816;11.506;2023-06-04T12:36:25;25.30;50.30
15690;DHT22;7945;48.816;11.506;2023-06-04T12:38:52;25.50;50.60
15690;DHT22;7945;48.816;11.506;2023-06-04T12:41:18;25.60;50.70
15690;DHT22;7945;48.816;11.506;2023-06-04T12:43:46;25.40;50.90
15690;DHT22;7945;48.816;11.506;2023-06-04T12:46:13;25.40;50.80
15690;DHT22;7945;48.816;11.506;2023-06-04T12:48:40;25.20;50.60
15690;DHT22;7945;48.816;11.506;2023-06-04T12:51:08;25.30;50.80
15690;DHT22;7945;48.816;11.506;2023-06-04T12:53:37;25.50;50.60
15690;DHT22;7945;48.816;11.506;2023-06-04T12:56:04;25.50;50.60
15690;DHT22;7945;48.816;11.506;2023-06-04T12:58:31;25.60;50.80
15690;DHT22;7945;48.816;11.506;2023-06-04T13:01:00;25.50;51.00
15690;DHT22;7945;48.816;11.506;2023-06-04T13:03:26;25.40;50.80
15690;DHT22;7945;48.816;11.506;2023-06-04T13:05:53;25.30;50.90
15690;DHT22;7945;48.816;11.506;2023-06-04T13:08:20;25.30;50.90
15690;DHT22;7945;48.816;11.506;2023-06-04T13:10:47;25.20;50.80
15690;DHT22;7945;48.816;11.506;2023-06-04T13:13:14;25.10;50.60
15690;DHT22;7945;48.816;11.506;2023-06-04T13:15:41;25.10;50.50
15690;DHT22;7945;48.816;11.506;2023-06-04T13:18:10;25.20;50.50
15690;DHT22;7945;48.816;11.506;2023-06-04T13:20:37;25.40;50.50
15690;DHT22;7945;48.816;11.506;2023-06-04T13:23:04;25.60;50.40
15690;DHT22;7945;48.816;11.506;2023-06-04T13:25:30;25.70;50.10
15690;DHT22;7945;48.816;11.506;2023-06-04T13:27:58;25.90;50.20
15690;DHT22;7945;48.816;11.506;2023-06-04T13:30:25;26.10;50.20
15690;DHT22;7945;48.816;11.506;2023-06-04T13:32:52;26.10;49.70
15690;DHT22;7945;48.816;11.506;2023-06-04T13:35:20;26.10;49.90
15690;DHT22;7945;48.816;11.506;2023-06-04T13:37:47;26.10;50.10
15690;DHT22;7945;48.816;11.506;2023-06-04T13:40:14;26.10;50.00
15690;DHT22;7945;48.816;11.506;2023-06-04T13:42:41;26.10;50.30
15690;DHT22;7945;48.816;11.506;2023-06-04T13:45:09;26.20;49.90
15690;DHT22;7945;48.816;11.506;2023-06-04T13:47:36;26.30;49.60
15690;DHT22;7945;48.816;11.506;2023-06-04T13:50:03;26.40;49.40
15690;DHT22;7945;48.816;11.506;2023-06-04T13:52:32;26.50;49.00
15690;DHT22;7945;48.816;11.506;2023-06-04T13:54:59;26.40;48.90
15690;DHT22;7945;48.816;11.506;2023-06-04T13:57:27;26.30;48.70
15690;DHT22;7945;48.816;11.506;2023-06-04T13:59:54;26.20;48.50
15690;DHT22;7945;48.816;11.506;2023-06-04T14:02:20;26.30;48.90
15690;DHT22;7945;48.816;11.506;2023-06-04T14:04:49;26.20;49.20
15690;DHT22;7945;48.816;11.506;2023-06-04T14:07:16;26.20;49.30
15690;DHT22;7945;48.816;11.506;2023-06-04T14:09:44;26.20;49.30
15690;DHT22;7945;48.816;11.506;2023-06-04T14:12:10;26.10;49.20
15690;DHT22;7945;48.816;11.506;2023-06-04T14:14:38;26.10;49.70
15690;DHT22;7945;48.816;11.506;2023-06-04T14:17:06;26.10;49.70
15690;DHT22;7945;48.816;11.506;2023-06-04T14:19:32;26.10;49.20
15690;DHT22;7945;48.816;11.506;2023-06-04T14:21:59;26.20;49.60
15690;DHT22;7945;48.816;11.506;2023-06-04T14:24:26;26.30;50.10
15690;DHT22;7945;48.816;11.506;2023-06-04T14:26:54;26.20;49.90
15690;DHT22;7945;48.816;11.506;2023-06-04T14:29:20;26.20;49.10
15690;DHT22;7945;48.816;11.506;2023-06-04T14:31:47;26.10;48.60
15690;DHT22;7945;48.816;11.506;2023-06-04T14:34:14;26.10;48.50
15690;DHT22;7945;48.816;11.506;2023-06-04T14:36:41;26.10;48.50
15690;DHT22;7945;48.816;11.506;2023-06-04T14:39:08;26.20;48.10
15690;DHT22;7945;48.816;11.506;2023-06-04T14:41:35;26.20;48.70
15690;DHT22;7945;48.816;11.506;2023-06-04T14:44:04;26.30;48.90
15690;DHT22;7945;48.816;11.506;2023-06-04T14:46:31;26.40;48.60
15690;DHT22;7945;48.816;11.506;2023-06-04T14:48:58;26.30;47.90
15690;DHT22;7945;48.816;11.506;2023-06-04T14:51:26;26.30;47.70
15690;DHT22;7945;48.816;11.506;2023-06-04T14:53:53;26.20;48.20
15690;DHT22;7945;48.816;11.506;2023-06-04T14:56:21;26.20;47.60
15690;DHT22;7945;48.816;11.506;2023-06-04T14:58:48;26.30;47.20
15690;DHT22;7945;48.816;11.506;2023-06-04T15:01:17;26.40;47.00
15690;DHT22;7945;48.816;11.506;2023-06-04T15:03:44;26.50;46.90
15690;DHT22;7945;48.816;11.506;2023-06-04T15:06:12;26.70;47.00
15690;DHT22;7945;48.816;11.506;2023-06-04T15:08:39;26.70;47.10
15690;DHT22;7945;48.816;11.506;2023-06-04T15:11:06;26.40;47.40
15690;DHT22;7945;48.816;11.506;2023-06-04T15:13:33;26.20;47.50
15690;DHT22;7945;48.816;11.506;2023-06-04T15:16:00;26.10;48.00
15690;DHT22;7945;48.816;11.506;2023-06-04T15:18:29;25.90;48.00
15690;DHT22;7945;48.816;11.506;2023-06-04T15:20:56;25.80;48.10
15690;DHT22;7945;48.816;11.506;2023-06-04T15:23:23;25.70;48.10
15690;DHT22;7945;48.816;11.506;2023-06-04T15:25:50;25.60;48.40
15690;DHT22;7945;48.816;11.506;2023-06-04T15:28:17;25.60;48.30
15690;DHT22;7945;48.816;11.506;2023-06-04T15:30:44;25.60;48.40
15690;DHT22;7945;48.816;11.506;2023-06-04T15:33:11;25.60;48.30
15690;DHT22;7945;48.816;11.506;2023-06-04T15:35:39;25.60;48.30